createdAt,value
2017-05-18T00:01:29.472Z,6.28
2017-05-18T00:03:56.995Z,6.24
2017-05-18T00:06:23.752Z,6.34
2017-05-18T00:08:50.552Z,6.22
2017-05-18T00:11:17.311Z,5.94
2017-05-18T00:13:44.312Z,6.14
2017-05-18T00:16:11.827Z,5.54
2017-05-18T00:18:38.584Z,6.10
2017-05-18T00:21:05.367Z,6.70
2017-05-18T00:23:32.124Z,6.46
2017-05-18T00:25:58.884Z,6.40
2017-05-18T00:28:25.660Z,6.68
2017-05-18T00:30:52.432Z,6.76
2017-05-18T00:33:19.220Z,6.24
2017-05-18T00:35:45.976Z,6.56
2017-05-18T00:38:12.737Z,6.80
2017-05-18T00:40:40.301Z,6.54
2017-05-18T00:43:07.818Z,6.38
2017-05-18T00:45:34.604Z,6.80
2017-05-18T00:48:02.104Z,6.34
2017-05-18T00:50:28.858Z,6.66
2017-05-18T00:52:55.632Z,7.06
2017-05-18T00:55:22.405Z,7.36
2017-05-18T00:57:49.203Z,7.44
2017-05-18T01:00:15.972Z,6.88
2017-05-18T01:02:43.472Z,6.78
2017-05-18T01:05:10.248Z,7.32
2017-05-18T01:07:37.008Z,7.72
2017-05-18T01:10:03.795Z,7.64
2017-05-18T01:12:30.548Z,7.56
2017-05-18T01:14:57.310Z,7.32
2017-05-18T01:17:24.084Z,7.52
2017-05-18T01:19:51.593Z,7.46
2017-05-18T01:22:18.384Z,7.40
2017-05-18T01:24:45.883Z,7.30
2017-05-18T01:27:12.643Z,6.84
2017-05-18T01:29:39.644Z,7.12
2017-05-18T01:32:07.152Z,7.40
2017-05-18T01:34:33.936Z,7.44
2017-05-18T01:37:01.454Z,7.14
2017-05-18T01:39:28.221Z,7.78
2017-05-18T01:41:55.024Z,6.22
2017-05-18T01:44:22.036Z,6.96
2017-05-18T01:46:49.548Z,7.12
2017-05-18T01:49:16.356Z,7.36
2017-05-18T01:51:43.129Z,6.90
2017-05-18T01:54:09.883Z,6.92
2017-05-18T01:56:36.671Z,6.90
2017-05-18T01:59:04.194Z,7.18
2017-05-18T02:01:30.955Z,6.56
2017-05-18T02:03:58.492Z,7.32
2017-05-18T02:06:25.257Z,6.80
2017-05-18T02:08:52.768Z,7.28
2017-05-18T02:14:11.465Z,7.32
2017-05-18T02:16:38.179Z,7.88
2017-05-18T02:19:04.867Z,7.80
2017-05-18T02:21:31.567Z,7.50
2017-05-18T02:23:58.272Z,7.72
2017-05-18T02:26:25.200Z,8.02
2017-05-18T02:28:52.648Z,7.94
2017-05-18T02:31:19.344Z,7.62
2017-05-18T02:33:46.023Z,7.40
2017-05-18T02:36:20.427Z,8.76
2017-05-18T02:38:47.113Z,7.50
2017-05-18T02:41:13.877Z,7.20
2017-05-18T02:43:40.554Z,7.12
2017-05-18T02:46:07.243Z,7.62
2017-05-18T02:48:33.940Z,8.00
2017-05-18T02:51:00.635Z,7.90
2017-05-18T02:53:27.347Z,7.30
2017-05-18T02:55:54.771Z,6.94
2017-05-18T02:58:21.746Z,7.68
2017-05-18T03:00:49.192Z,7.98
2017-05-18T03:03:15.879Z,6.96
2017-05-18T03:05:42.583Z,7.62
2017-05-18T03:08:10.011Z,7.60
2017-05-18T03:10:36.713Z,6.80
2017-05-18T03:13:03.411Z,7.42
2017-05-18T03:15:30.089Z,7.48
2017-05-18T03:17:57.106Z,7.00
2017-05-18T03:20:24.541Z,7.12
2017-05-18T03:22:51.235Z,7.52
2017-05-18T03:25:17.922Z,7.50
2017-05-18T03:27:44.601Z,7.30
2017-05-18T03:30:11.393Z,7.76
2017-05-18T03:32:38.086Z,6.90
2017-05-18T03:35:04.784Z,7.70
2017-05-18T03:37:31.463Z,6.42
2017-05-18T03:39:58.890Z,6.30
2017-05-18T03:42:25.595Z,7.06
2017-05-18T03:44:52.281Z,6.62
2017-05-18T03:47:19.715Z,6.66
2017-05-18T03:49:46.403Z,6.78
2017-05-18T03:52:13.079Z,6.98
2017-05-18T03:54:39.770Z,6.48
2017-05-18T03:57:07.190Z,7.12
2017-05-18T03:59:33.881Z,5.96
2017-05-18T04:02:00.566Z,6.60
2017-05-18T04:04:27.254Z,6.14
2017-05-18T04:06:54.675Z,5.68
2017-05-18T04:09:21.359Z,5.60
2017-05-18T04:11:48.054Z,5.90
2017-05-18T04:14:14.736Z,6.02
2017-05-18T04:16:41.460Z,6.70
2017-05-18T04:19:08.173Z,5.34
2017-05-18T04:21:34.886Z,5.28
2017-05-18T04:24:01.583Z,5.30
2017-05-18T04:26:29.006Z,5.12
2017-05-18T04:28:55.699Z,5.44
2017-05-18T04:31:22.390Z,5.00
2017-05-18T04:33:49.062Z,5.28
2017-05-18T04:36:16.482Z,5.60
2017-05-18T04:38:43.160Z,5.28
2017-05-18T04:41:10.587Z,5.64
2017-05-18T04:43:37.275Z,5.58
2017-05-18T04:46:03.972Z,5.62
2017-05-18T04:48:30.660Z,5.72
2017-05-18T04:50:57.363Z,5.12
2017-05-18T04:53:24.808Z,5.00
2017-05-18T04:55:51.542Z,5.08
2017-05-18T04:58:18.236Z,5.14
2017-05-18T05:00:44.920Z,5.14
2017-05-18T05:03:11.652Z,5.30
2017-05-18T05:05:38.476Z,4.64
2017-05-18T05:08:05.151Z,5.14
2017-05-18T05:10:31.854Z,5.10
2017-05-18T05:12:58.543Z,5.38
2017-05-18T05:15:25.232Z,4.34
2017-05-18T05:17:52.248Z,4.68
2017-05-18T05:20:19.694Z,4.86
2017-05-18T05:22:47.128Z,4.58
2017-05-18T05:25:13.810Z,4.62
2017-05-18T05:27:41.282Z,5.36
2017-05-18T05:30:07.966Z,4.56
2017-05-18T05:32:34.661Z,5.14
2017-05-18T05:35:01.395Z,5.02
2017-05-18T05:37:28.094Z,5.32
2017-05-18T05:39:55.068Z,4.88
2017-05-18T05:42:22.495Z,4.90
2017-05-18T05:44:49.199Z,5.36
2017-05-18T05:47:15.883Z,4.26
2017-05-18T05:49:42.584Z,4.82
2017-05-18T05:52:09.267Z,4.94
2017-05-18T05:54:35.952Z,4.86
2017-05-18T05:57:03.643Z,4.66
2017-05-18T05:59:30.314Z,4.00
2017-05-18T06:01:57.005Z,4.74
2017-05-18T06:04:23.704Z,4.56
2017-05-18T06:06:51.143Z,5.10
2017-05-18T06:09:17.835Z,4.32
2017-05-18T06:11:44.520Z,3.92
2017-05-18T06:14:11.235Z,4.12
2017-05-18T06:16:37.915Z,4.38
2017-05-18T06:19:04.595Z,4.06
2017-05-18T06:21:31.274Z,4.30
2017-05-18T06:23:58.094Z,4.10
2017-05-18T06:26:24.807Z,4.68
2017-05-18T06:28:51.553Z,4.42
2017-05-18T06:31:18.244Z,3.82
2017-05-18T06:33:44.939Z,4.30
2017-05-18T06:36:11.779Z,4.10
2017-05-18T06:38:38.570Z,4.22
2017-05-18T06:41:05.254Z,4.44
2017-05-18T06:43:31.952Z,4.38
2017-05-18T06:45:58.646Z,4.64
2017-05-18T06:48:25.329Z,4.40
2017-05-18T06:50:52.042Z,4.80
2017-05-18T06:53:18.729Z,4.46
2017-05-18T06:55:46.266Z,5.02
2017-05-18T06:58:12.955Z,5.06
2017-05-18T07:00:39.703Z,4.42
2017-05-18T07:03:06.391Z,5.02
2017-05-18T07:05:33.070Z,4.74
2017-05-18T07:08:00.527Z,4.90
2017-05-18T07:10:27.952Z,4.08
2017-05-18T07:12:54.673Z,4.50
2017-05-18T07:15:21.354Z,4.88
2017-05-18T07:17:49.365Z,4.86
2017-05-18T07:20:16.076Z,4.80
2017-05-18T07:22:43.507Z,4.78
2017-05-18T07:25:10.195Z,4.92
2017-05-18T07:27:36.914Z,4.28
2017-05-18T07:30:04.356Z,4.24
2017-05-18T07:32:31.069Z,4.70
2017-05-18T07:34:57.766Z,4.12
2017-05-18T07:37:24.455Z,4.18
2017-05-18T07:39:51.135Z,4.14
2017-05-18T07:42:18.554Z,3.98
2017-05-18T07:44:45.235Z,4.60
2017-05-18T07:47:12.650Z,4.56
2017-05-18T07:49:39.354Z,3.70
2017-05-18T07:52:06.046Z,3.50
2017-05-18T07:54:32.732Z,4.18
2017-05-18T07:56:59.438Z,4.38
2017-05-18T07:59:26.868Z,5.68
2017-05-18T08:01:53.768Z,3.90
2017-05-18T08:04:20.687Z,3.70
2017-05-18T08:06:48.103Z,4.46
2017-05-18T08:09:14.790Z,3.24
2017-05-18T08:11:42.219Z,3.74
2017-05-18T08:14:08.932Z,3.58
2017-05-18T08:16:35.730Z,3.48
2017-05-18T08:19:02.426Z,3.98
2017-05-18T08:21:29.117Z,4.08
2017-05-18T08:23:55.816Z,3.92
2017-05-18T08:26:22.650Z,3.72
2017-05-18T08:28:49.326Z,3.80
2017-05-18T08:31:16.761Z,3.82
2017-05-18T08:33:43.463Z,3.64
2017-05-18T08:36:10.139Z,4.46
2017-05-18T08:38:36.866Z,3.90
2017-05-18T08:41:03.546Z,4.24
2017-05-18T08:43:30.968Z,3.68
2017-05-18T08:45:58.284Z,4.14
2017-05-18T08:48:24.979Z,4.80
2017-05-18T08:50:51.942Z,4.34
2017-05-18T08:53:19.372Z,4.04
2017-05-18T08:55:46.976Z,3.94
2017-05-18T08:58:14.423Z,4.62
2017-05-18T09:00:41.866Z,4.70
2017-05-18T09:03:08.551Z,4.90
2017-05-18T09:05:35.243Z,4.64
2017-05-18T09:08:01.922Z,4.88
2017-05-18T09:10:28.620Z,4.72
2017-05-18T09:12:55.304Z,4.26
2017-05-18T09:15:21.983Z,4.30
2017-05-18T09:17:48.667Z,4.32
2017-05-18T09:20:16.096Z,4.48
2017-05-18T09:22:42.794Z,5.04
2017-05-18T09:25:09.474Z,4.70
2017-05-18T09:27:36.167Z,5.78
2017-05-18T09:30:02.883Z,4.46
2017-05-18T09:32:30.302Z,3.92
2017-05-18T09:34:57.017Z,4.42
2017-05-18T09:37:23.692Z,4.10
2017-05-18T09:39:50.393Z,4.24
2017-05-18T09:42:17.127Z,4.50
2017-05-18T09:44:43.820Z,4.06
2017-05-18T09:47:10.527Z,4.60
2017-05-18T09:49:37.214Z,4.44
2017-05-18T09:52:04.633Z,4.82
2017-05-18T09:54:31.336Z,4.28
2017-05-18T09:56:58.020Z,4.02
2017-05-18T09:59:24.715Z,4.38
2017-05-18T10:01:51.403Z,4.86
2017-05-18T10:04:18.111Z,4.62
2017-05-18T10:06:44.795Z,4.32
2017-05-18T10:09:11.468Z,5.00
2017-05-18T10:11:38.150Z,6.02
2017-05-18T10:14:04.850Z,6.02
2017-05-18T10:16:31.562Z,6.06
2017-05-18T10:18:58.252Z,5.44
2017-05-18T10:21:24.935Z,6.58
2017-05-18T10:23:51.645Z,5.68
2017-05-18T10:26:18.361Z,5.48
2017-05-18T10:28:45.039Z,6.70
2017-05-18T10:31:11.726Z,6.40
2017-05-18T10:33:39.142Z,7.52
2017-05-18T10:36:05.830Z,6.26
2017-05-18T10:38:32.507Z,7.98
2017-05-18T10:40:59.199Z,7.38
2017-05-18T10:43:26.617Z,7.60
2017-05-18T10:45:53.320Z,6.90
2017-05-18T10:48:20.004Z,7.60
2017-05-18T10:50:46.691Z,6.36
2017-05-18T10:53:13.392Z,8.08
2017-05-18T10:55:40.072Z,6.56
2017-05-18T10:58:06.759Z,6.96
2017-05-18T11:00:33.434Z,7.58
2017-05-18T11:03:00.883Z,6.38
2017-05-18T11:05:28.304Z,6.60
2017-05-18T11:07:54.987Z,5.74
2017-05-18T11:10:22.423Z,6.60
2017-05-18T11:12:49.136Z,5.40
2017-05-18T11:15:15.847Z,6.00
2017-05-18T11:17:42.535Z,6.02
2017-05-18T11:20:09.206Z,6.30
2017-05-18T11:22:36.634Z,6.18
2017-05-18T11:25:03.314Z,6.20
2017-05-18T11:27:30.016Z,6.40
2017-05-18T11:29:56.707Z,7.76
2017-05-18T11:32:23.421Z,7.60
2017-05-18T11:34:50.847Z,6.72
2017-05-18T11:37:17.528Z,6.68
2017-05-18T11:39:44.956Z,5.52
2017-05-18T11:42:11.634Z,7.34
2017-05-18T11:44:38.344Z,6.10
2017-05-18T11:47:05.032Z,5.90
2017-05-18T11:49:32.031Z,5.80
2017-05-18T11:51:58.716Z,5.62
2017-05-18T11:54:25.408Z,7.88
2017-05-18T11:56:52.103Z,7.30
2017-05-18T11:59:18.793Z,6.78
2017-05-18T12:01:45.488Z,6.14
2017-05-18T12:04:12.171Z,6.22
2017-05-18T12:06:38.858Z,7.56
2017-05-18T12:09:05.552Z,6.86
2017-05-18T12:11:32.982Z,14.82
2017-05-18T12:13:59.684Z,9.08
2017-05-18T12:16:26.363Z,13.62
2017-05-18T12:18:53.068Z,11.66
2017-05-18T12:21:19.754Z,9.58
2017-05-18T12:23:46.431Z,9.48
2017-05-18T12:26:13.885Z,9.58
2017-05-18T12:28:40.976Z,12.58
2017-05-18T12:31:07.671Z,13.90
2017-05-18T12:33:35.099Z,11.48
2017-05-18T12:36:01.770Z,11.12
2017-05-18T12:38:29.206Z,9.38
2017-05-18T12:40:55.883Z,11.04
2017-05-18T12:43:22.558Z,14.42
2017-05-18T12:45:49.249Z,18.90
2017-05-18T12:48:16.671Z,18.14
2017-05-18T12:50:43.375Z,21.08
2017-05-18T12:53:10.063Z,17.64
2017-05-18T12:55:36.747Z,16.02
2017-05-18T12:58:03.434Z,17.96
2017-05-18T13:00:30.115Z,16.30
2017-05-18T13:02:56.818Z,17.34
2017-05-18T13:05:23.503Z,16.40
2017-05-18T13:07:50.244Z,15.50
2017-05-18T13:10:16.936Z,17.10
2017-05-18T13:12:43.627Z,16.44
2017-05-18T13:15:10.315Z,18.14
2017-05-18T13:17:37.015Z,15.90
2017-05-18T13:20:03.715Z,18.20
2017-05-18T13:22:31.144Z,20.60
2017-05-18T13:24:57.824Z,19.16
2017-05-18T13:27:25.263Z,21.30
2017-05-18T13:29:51.959Z,18.46
2017-05-18T13:32:18.666Z,16.38
2017-05-18T13:34:46.091Z,17.94
2017-05-18T13:37:12.791Z,17.34
2017-05-18T13:39:39.495Z,18.66
2017-05-18T13:42:06.919Z,18.42
2017-05-18T13:44:33.590Z,16.62
2017-05-18T13:47:01.037Z,17.30
2017-05-18T13:49:27.744Z,18.20
2017-05-18T13:51:54.443Z,21.40
2017-05-18T13:54:21.128Z,17.70
2017-05-18T13:56:47.826Z,20.54
2017-05-18T13:59:14.507Z,18.04
2017-05-18T14:01:41.206Z,18.14
2017-05-18T14:04:07.887Z,20.22
2017-05-18T14:06:34.595Z,21.18
2017-05-18T14:09:01.514Z,22.80
2017-05-18T14:11:28.943Z,22.02
2017-05-18T14:13:55.622Z,20.62
2017-05-18T14:16:22.359Z,19.16
2017-05-18T14:18:49.811Z,19.52
2017-05-18T14:21:17.263Z,20.64
2017-05-18T14:23:43.946Z,19.76
2017-05-18T14:26:10.630Z,20.36
2017-05-18T14:28:37.311Z,19.40
2017-05-18T14:31:04.013Z,20.82
2017-05-18T14:33:31.454Z,20.56
2017-05-18T14:35:59.187Z,20.68
2017-05-18T14:38:25.866Z,20.68
2017-05-18T14:40:52.551Z,21.42
2017-05-18T14:43:19.248Z,21.54
2017-05-18T14:45:45.927Z,21.12
2017-05-18T14:48:12.648Z,20.78
2017-05-18T14:50:40.127Z,22.70
2017-05-18T14:53:06.812Z,21.26
2017-05-18T14:55:33.502Z,21.30
2017-05-18T14:58:00.923Z,21.10
2017-05-18T15:00:27.623Z,21.18
2017-05-18T15:02:54.345Z,19.84
2017-05-18T15:05:21.033Z,20.38
2017-05-18T15:07:47.718Z,21.40
2017-05-18T15:10:15.135Z,19.36
2017-05-18T15:12:41.823Z,20.92
2017-05-18T15:15:08.510Z,18.86
2017-05-18T15:17:35.183Z,18.58
2017-05-18T15:20:02.610Z,19.08
2017-05-18T15:22:29.292Z,19.94
2017-05-18T15:24:57.051Z,20.86
2017-05-18T15:27:24.475Z,19.84
2017-05-18T15:29:51.160Z,19.80
2017-05-18T15:32:18.595Z,20.54
2017-05-18T15:34:45.275Z,20.82
2017-05-18T15:37:11.979Z,21.50
2017-05-18T15:39:39.417Z,20.64
2017-05-18T15:42:06.124Z,21.36
2017-05-18T15:44:32.799Z,21.14
2017-05-18T15:46:59.479Z,19.74
2017-05-18T15:49:26.172Z,19.96
2017-05-18T15:51:52.846Z,21.24
2017-05-18T15:54:20.503Z,22.80
2017-05-18T15:56:47.935Z,23.70
2017-05-18T15:59:14.625Z,22.08
2017-05-18T16:01:41.302Z,24.50
2017-05-18T16:04:08.287Z,26.38
2017-05-18T16:06:35.706Z,25.00
2017-05-18T16:09:02.380Z,26.06
2017-05-18T16:11:29.811Z,26.62
2017-05-18T16:13:56.498Z,28.70
2017-05-18T16:16:23.206Z,26.18
2017-05-18T16:18:49.910Z,27.30
2017-05-18T16:21:16.622Z,27.04
2017-05-18T16:23:43.343Z,27.86
2017-05-18T16:26:10.941Z,26.80
2017-05-18T16:28:37.644Z,27.78
2017-05-18T16:31:05.123Z,25.92
2017-05-18T16:33:31.901Z,26.82
2017-05-18T16:35:58.594Z,26.92
2017-05-18T16:38:25.305Z,27.02
2017-05-18T16:40:52.015Z,26.38
2017-05-18T16:43:18.750Z,26.82
2017-05-18T16:45:45.502Z,26.94
2017-05-18T16:48:12.189Z,26.74
2017-05-18T16:50:38.909Z,25.56
2017-05-18T16:53:05.603Z,28.18
2017-05-18T16:55:32.296Z,27.58
2017-05-18T16:57:58.989Z,27.38
2017-05-18T17:00:25.700Z,26.74
2017-05-18T17:02:52.403Z,26.64
2017-05-18T17:05:19.079Z,27.32
2017-05-18T17:07:45.788Z,25.46
2017-05-18T17:10:12.479Z,26.14
2017-05-18T17:12:39.179Z,26.74
2017-05-18T17:15:05.871Z,27.92
2017-05-18T17:17:32.574Z,28.12
2017-05-18T17:19:59.999Z,27.72
2017-05-18T17:22:26.707Z,26.14
2017-05-18T17:24:53.464Z,28.94
2017-05-18T17:27:20.154Z,28.04
2017-05-18T17:29:46.892Z,27.50
2017-05-18T17:32:14.314Z,27.50
2017-05-18T17:34:41.007Z,28.52
2017-05-18T17:37:07.731Z,28.78
2017-05-18T17:39:35.150Z,27.94
2017-05-18T17:42:01.842Z,27.70
2017-05-18T17:44:29.696Z,28.82
2017-05-18T17:46:57.439Z,29.66
2017-05-18T17:49:24.214Z,28.24
2017-05-18T17:51:51.643Z,29.62
2017-05-18T17:54:18.375Z,29.28
2017-05-18T17:56:45.062Z,28.84
2017-05-18T17:59:11.771Z,28.12
2017-05-18T18:01:38.454Z,29.36
2017-05-18T18:04:05.150Z,28.90
2017-05-18T18:06:31.835Z,28.64
2017-05-18T18:08:58.847Z,29.06
2017-05-18T18:11:26.510Z,28.74
2017-05-18T18:13:54.276Z,28.18
2017-05-18T18:16:21.776Z,28.94
2017-05-18T18:18:48.474Z,26.90
2017-05-18T18:21:15.949Z,28.80
2017-05-18T18:23:42.709Z,28.66
2017-05-18T18:26:10.311Z,29.78
2017-05-18T18:28:36.994Z,28.86
2017-05-18T18:31:03.703Z,27.66
2017-05-18T18:33:30.388Z,29.12
2017-05-18T18:35:57.070Z,29.44
2017-05-18T18:38:23.763Z,30.14
2017-05-18T18:40:50.467Z,29.46
2017-05-18T18:43:17.179Z,29.96
2017-05-18T18:45:43.866Z,28.36
2017-05-18T18:48:11.299Z,29.06
2017-05-18T18:50:37.988Z,31.40
2017-05-18T18:53:04.683Z,29.72
2017-05-18T18:55:32.143Z,29.46
2017-05-18T18:57:59.587Z,30.00
2017-05-18T19:00:26.262Z,31.10
2017-05-18T19:02:53.679Z,27.48
2017-05-18T19:05:20.374Z,29.54
2017-05-18T19:07:47.059Z,30.04
2017-05-18T19:10:13.783Z,27.06
2017-05-18T19:12:40.490Z,30.24
2017-05-18T19:15:07.175Z,30.06
2017-05-18T19:17:33.857Z,30.18
2017-05-18T19:20:00.584Z,28.46
2017-05-18T19:22:27.267Z,25.54
2017-05-18T19:24:53.948Z,27.48
2017-05-18T19:27:20.639Z,30.58
2017-05-18T19:29:47.314Z,30.14
2017-05-18T19:32:14.137Z,27.54
2017-05-18T19:34:40.837Z,30.06
2017-05-18T19:37:08.258Z,28.58
2017-05-18T19:39:34.965Z,28.38
2017-05-18T19:42:01.650Z,26.66
2017-05-18T19:44:28.329Z,26.70
2017-05-18T19:46:55.035Z,27.88
2017-05-18T19:49:21.721Z,28.06
2017-05-18T19:51:48.831Z,28.60
2017-05-18T19:54:15.561Z,27.54
2017-05-18T19:56:42.251Z,27.28
2017-05-18T19:59:08.979Z,28.18
2017-05-18T20:01:35.666Z,27.84
2017-05-18T20:04:02.352Z,28.00
2017-05-18T20:06:29.783Z,30.40
2017-05-18T20:08:56.495Z,29.46
2017-05-18T20:11:23.204Z,29.92
2017-05-18T20:13:49.870Z,28.80
2017-05-18T20:16:16.579Z,30.02
2017-05-18T20:18:43.284Z,31.44
2017-05-18T20:21:10.731Z,29.70
2017-05-18T20:23:37.443Z,30.36
2017-05-18T20:26:04.149Z,31.20
2017-05-18T20:28:31.558Z,33.72
2017-05-18T20:30:58.262Z,32.84
2017-05-18T20:33:24.945Z,29.58
2017-05-18T20:35:51.622Z,29.76
2017-05-18T20:38:19.063Z,31.68
2017-05-18T20:40:46.519Z,28.98
2017-05-18T20:43:13.202Z,28.46
2017-05-18T20:45:39.899Z,28.16
2017-05-18T20:48:06.577Z,28.28
2017-05-18T20:50:33.259Z,26.14
2017-05-18T20:52:59.967Z,25.78
2017-05-18T20:55:26.656Z,24.96
2017-05-18T20:57:53.335Z,26.28
2017-05-18T21:00:20.063Z,25.18
2017-05-18T21:02:47.494Z,26.28
2017-05-18T21:05:14.165Z,26.82
2017-05-18T21:07:41.611Z,25.72
2017-05-18T21:10:08.301Z,25.36
2017-05-18T21:12:34.996Z,25.44
2017-05-18T21:15:02.447Z,26.18
2017-05-18T21:17:29.896Z,25.78
2017-05-18T21:19:56.578Z,26.30
2017-05-18T21:22:23.270Z,26.32
2017-05-18T21:24:49.969Z,27.90
2017-05-18T21:27:16.663Z,25.46
2017-05-18T21:29:44.091Z,26.44
2017-05-18T21:32:10.783Z,26.02
2017-05-18T21:34:37.500Z,25.72
2017-05-18T21:37:04.922Z,25.72
2017-05-18T21:39:31.630Z,24.44
2017-05-18T21:41:58.309Z,24.96
2017-05-18T21:44:24.999Z,25.08
2017-05-18T21:46:51.701Z,24.78
2017-05-18T21:49:18.392Z,24.32
2017-05-18T21:51:45.104Z,24.04
2017-05-18T21:54:12.539Z,24.76
2017-05-18T21:56:39.232Z,23.58
2017-05-18T21:59:05.923Z,25.20
2017-05-18T22:01:32.608Z,23.84
2017-05-18T22:03:59.310Z,21.64
2017-05-18T22:06:25.990Z,21.22
2017-05-18T22:08:52.678Z,20.68
2017-05-18T22:11:19.383Z,22.02
2017-05-18T22:13:46.068Z,20.02
2017-05-18T22:16:13.527Z,20.52
2017-05-18T22:18:40.979Z,21.34
2017-05-18T22:21:08.422Z,20.72
2017-05-18T22:23:35.106Z,21.90
2017-05-18T22:26:02.526Z,20.12
2017-05-18T22:28:29.214Z,19.76
2017-05-18T22:30:55.904Z,20.30
2017-05-18T22:33:22.603Z,19.70
2017-05-18T22:35:49.278Z,21.68
2017-05-18T22:38:15.965Z,20.54
2017-05-18T22:40:43.392Z,21.28
2017-05-18T22:43:10.090Z,20.82
2017-05-18T22:45:36.778Z,21.50
2017-05-18T22:48:03.464Z,21.92
2017-05-18T22:50:30.147Z,20.76
2017-05-18T22:52:56.840Z,21.70
2017-05-18T22:55:23.523Z,20.82
2017-05-18T22:57:50.226Z,20.18
2017-05-18T23:00:16.922Z,21.82
2017-05-18T23:02:43.620Z,22.50
2017-05-18T23:05:10.320Z,23.84
2017-05-18T23:07:37.750Z,24.36
2017-05-18T23:10:04.454Z,26.22
2017-05-18T23:12:31.136Z,28.08
2017-05-18T23:14:58.096Z,28.20
2017-05-18T23:17:24.811Z,31.56
2017-05-18T23:19:51.511Z,31.44
2017-05-18T23:22:18.214Z,34.44
2017-05-18T23:24:45.731Z,35.22
2017-05-18T23:27:12.423Z,38.18
2017-05-18T23:29:39.851Z,34.84
2017-05-18T23:32:06.530Z,34.24
2017-05-18T23:34:33.247Z,34.72
2017-05-18T23:36:59.922Z,34.72
2017-05-18T23:39:26.610Z,34.24
2017-05-18T23:41:53.299Z,36.00
2017-05-18T23:44:19.992Z,34.54
2017-05-18T23:46:46.701Z,35.08
2017-05-18T23:49:13.388Z,33.14
2017-05-18T23:51:40.070Z,33.62
2017-05-18T23:54:06.775Z,33.80
2017-05-18T23:56:34.195Z,33.78
2017-05-18T23:59:00.890Z,33.22
